sensor_id;sensor_type;location;lat;lon;timestamp;P1;durP1;ratioP1;P2;durP2;ratioP2
47367;SDS011;34646;47.964;7.982;2023-03-01T00:03:21;4.10;;;3.03;;
47367;SDS011;34646;47.964;7.982;2023-03-01T00:09:22;4.40;;;3.10;;
47367;SDS011;34646;47.964;7.982;2023-03-01T00:15:23;4.93;;;2.97;;
47367;SDS011;34646;47.964;7.982;2023-03-01T00:21:28;5.03;;;2.85;;
47367;SDS011;34646;47.964;7.982;2023-03-01T00:27:35;4.18;;;2.80;;
47367;SDS011;34646;47.964;7.982;2023-03-01T00:33:42;3.97;;;2.47;;
47367;SDS011;34646;47.964;7.982;2023-03-01T00:39:52;4.20;;;2.55;;
47367;SDS011;34646;47.964;7.982;2023-03-01T00:45:53;5.00;;;2.90;;
47367;SDS011;34646;47.964;7.982;2023-03-01T00:51:57;4.68;;;2.80;;
47367;SDS011;34646;47.964;7.982;2023-03-01T00:58:03;4.40;;;2.72;;
47367;SDS011;34646;47.964;7.982;2023-03-01T01:04:13;3.40;;;2.60;;
47367;SDS011;34646;47.964;7.982;2023-03-01T01:10:14;3.60;;;2.42;;
47367;SDS011;34646;47.964;7.982;2023-03-01T01:16:21;6.13;;;3.20;;
47367;SDS011;34646;47.964;7.982;2023-03-01T01:22:27;3.80;;;2.55;;
47367;SDS011;34646;47.964;7.982;2023-03-01T01:28:28;4.53;;;2.85;;
47367;SDS011;34646;47.964;7.982;2023-03-01T01:34:33;4.25;;;2.70;;
47367;SDS011;34646;47.964;7.982;2023-03-01T01:40:34;5.43;;;2.70;;
47367;SDS011;34646;47.964;7.982;2023-03-01T01:46:42;3.70;;;2.57;;
47367;SDS011;34646;47.964;7.982;2023-03-01T01:52:46;3.67;;;2.60;;
47367;SDS011;34646;47.964;7.982;2023-03-01T01:58:50;3.72;;;2.30;;
47367;SDS011;34646;47.964;7.982;2023-03-01T02:04:53;3.72;;;2.80;;
47367;SDS011;34646;47.964;7.982;2023-03-01T02:11:03;4.10;;;2.75;;
47367;SDS011;34646;47.964;7.982;2023-03-01T02:17:04;4.60;;;2.80;;
47367;SDS011;34646;47.964;7.982;2023-03-01T02:23:06;5.10;;;2.83;;
47367;SDS011;34646;47.964;7.982;2023-03-01T02:29:08;3.50;;;2.50;;
47367;SDS011;34646;47.964;7.982;2023-03-01T02:35:10;5.17;;;2.67;;
47367;SDS011;34646;47.964;7.982;2023-03-01T02:41:15;6.72;;;2.60;;
47367;SDS011;34646;47.964;7.982;2023-03-01T02:47:17;3.13;;;2.63;;
47367;SDS011;34646;47.964;7.982;2023-03-01T02:53:24;4.43;;;2.23;;
47367;SDS011;34646;47.964;7.982;2023-03-01T02:59:34;3.55;;;2.50;;
47367;SDS011;34646;47.964;7.982;2023-03-01T03:05:40;4.50;;;2.75;;
47367;SDS011;34646;47.964;7.982;2023-03-01T03:11:41;4.30;;;2.47;;
47367;SDS011;34646;47.964;7.982;2023-03-01T03:17:43;4.43;;;2.80;;
47367;SDS011;34646;47.964;7.982;2023-03-01T03:23:44;2.87;;;2.33;;
47367;SDS011;34646;47.964;7.982;2023-03-01T03:29:45;4.67;;;3.13;;
47367;SDS011;34646;47.964;7.982;2023-03-01T03:35:47;2.83;;;2.23;;
47367;SDS011;34646;47.964;7.982;2023-03-01T03:41:49;4.68;;;2.80;;
47367;SDS011;34646;47.964;7.982;2023-03-01T03:47:50;3.60;;;2.30;;
47367;SDS011;34646;47.964;7.982;2023-03-01T03:53:51;3.07;;;2.40;;
47367;SDS011;34646;47.964;7.982;2023-03-01T03:59:52;3.57;;;2.50;;
47367;SDS011;34646;47.964;7.982;2023-03-01T04:05:53;3.60;;;2.50;;
47367;SDS011;34646;47.964;7.982;2023-03-01T04:11:54;4.57;;;2.90;;
47367;SDS011;34646;47.964;7.982;2023-03-01T04:17:55;3.87;;;2.60;;
47367;SDS011;34646;47.964;7.982;2023-03-01T04:23:57;5.32;;;2.60;;
47367;SDS011;34646;47.964;7.982;2023-03-01T04:29:58;4.60;;;2.53;;
47367;SDS011;34646;47.964;7.982;2023-03-01T04:36:00;2.97;;;2.27;;
47367;SDS011;34646;47.964;7.982;2023-03-01T04:42:05;3.53;;;2.72;;
47367;SDS011;34646;47.964;7.982;2023-03-01T04:48:06;2.67;;;2.17;;
47367;SDS011;34646;47.964;7.982;2023-03-01T04:54:07;4.43;;;2.40;;
47367;SDS011;34646;47.964;7.982;2023-03-01T05:00:09;3.75;;;2.58;;
47367;SDS011;34646;47.964;7.982;2023-03-01T05:06:21;3.30;;;2.30;;
47367;SDS011;34646;47.964;7.982;2023-03-01T05:12:22;2.83;;;2.30;;
47367;SDS011;34646;47.964;7.982;2023-03-01T05:18:23;4.20;;;2.40;;
47367;SDS011;34646;47.964;7.982;2023-03-01T05:24:28;3.72;;;2.70;;
47367;SDS011;34646;47.964;7.982;2023-03-01T05:30:31;4.75;;;2.53;;
47367;SDS011;34646;47.964;7.982;2023-03-01T05:36:33;12.07;;;5.25;;
47367;SDS011;34646;47.964;7.982;2023-03-01T05:42:34;7.32;;;4.25;;
47367;SDS011;34646;47.964;7.982;2023-03-01T05:48:36;7.90;;;4.32;;
47367;SDS011;34646;47.964;7.982;2023-03-01T05:54:37;6.20;;;4.20;;
47367;SDS011;34646;47.964;7.982;2023-03-01T06:00:39;6.00;;;3.92;;
47367;SDS011;34646;47.964;7.982;2023-03-01T06:06:40;8.05;;;4.13;;
47367;SDS011;34646;47.964;7.982;2023-03-01T06:12:41;7.33;;;4.00;;
47367;SDS011;34646;47.964;7.982;2023-03-01T06:18:43;7.60;;;3.80;;
47367;SDS011;34646;47.964;7.982;2023-03-01T06:24:45;9.70;;;3.92;;
47367;SDS011;34646;47.964;7.982;2023-03-01T06:30:46;10.20;;;4.07;;
47367;SDS011;34646;47.964;7.982;2023-03-01T06:36:47;12.93;;;4.50;;
47367;SDS011;34646;47.964;7.982;2023-03-01T06:42:48;11.67;;;4.33;;
47367;SDS011;34646;47.964;7.982;2023-03-01T06:48:50;10.95;;;3.58;;
47367;SDS011;34646;47.964;7.982;2023-03-01T06:54:51;12.30;;;3.70;;
47367;SDS011;34646;47.964;7.982;2023-03-01T07:00:52;8.00;;;3.53;;
47367;SDS011;34646;47.964;7.982;2023-03-01T07:06:53;8.33;;;3.67;;
47367;SDS011;34646;47.964;7.982;2023-03-01T07:12:56;6.47;;;3.53;;
47367;SDS011;34646;47.964;7.982;2023-03-01T07:18:57;9.63;;;3.83;;
47367;SDS011;34646;47.964;7.982;2023-03-01T07:24:58;8.38;;;3.58;;
47367;SDS011;34646;47.964;7.982;2023-03-01T07:31:01;6.63;;;3.57;;
47367;SDS011;34646;47.964;7.982;2023-03-01T07:37:02;9.75;;;3.40;;
47367;SDS011;34646;47.964;7.982;2023-03-01T07:43:03;13.93;;;3.93;;
47367;SDS011;34646;47.964;7.982;2023-03-01T07:49:04;10.33;;;3.60;;
47367;SDS011;34646;47.964;7.982;2023-03-01T07:55:06;6.57;;;3.70;;
47367;SDS011;34646;47.964;7.982;2023-03-01T08:01:08;9.50;;;3.93;;
47367;SDS011;34646;47.964;7.982;2023-03-01T08:07:10;6.00;;;3.53;;
47367;SDS011;34646;47.964;7.982;2023-03-01T08:13:11;6.23;;;3.73;;
47367;SDS011;34646;47.964;7.982;2023-03-01T08:19:12;6.93;;;3.57;;
47367;SDS011;34646;47.964;7.982;2023-03-01T08:25:13;5.63;;;3.70;;
47367;SDS011;34646;47.964;7.982;2023-03-01T08:31:16;6.30;;;3.97;;
47367;SDS011;34646;47.964;7.982;2023-03-01T08:37:17;5.03;;;3.28;;
47367;SDS011;34646;47.964;7.982;2023-03-01T08:43:18;7.93;;;3.67;;
47367;SDS011;34646;47.964;7.982;2023-03-01T08:49:19;5.90;;;3.53;;
47367;SDS011;34646;47.964;7.982;2023-03-01T08:55:20;9.23;;;3.55;;
47367;SDS011;34646;47.964;7.982;2023-03-01T09:01:22;4.10;;;3.20;;
47367;SDS011;34646;47.964;7.982;2023-03-01T09:07:23;6.57;;;4.17;;
47367;SDS011;34646;47.964;7.982;2023-03-01T09:13:28;6.90;;;3.42;;
47367;SDS011;34646;47.964;7.982;2023-03-01T09:19:31;7.13;;;4.07;;
47367;SDS011;34646;47.964;7.982;2023-03-01T09:25:33;6.30;;;3.43;;
47367;SDS011;34646;47.964;7.982;2023-03-01T09:31:34;5.70;;;3.70;;
47367;SDS011;34646;47.964;7.982;2023-03-01T09:37:36;5.23;;;3.30;;
47367;SDS011;34646;47.964;7.982;2023-03-01T09:49:41;6.85;;;3.50;;
47367;SDS011;34646;47.964;7.982;2023-03-01T09:55:51;5.72;;;3.45;;
47367;SDS011;34646;47.964;7.982;2023-03-01T10:02:11;5.70;;;3.22;;
47367;SDS011;34646;47.964;7.982;2023-03-01T10:15:06;5.43;;;3.33;;
47367;SDS011;34646;47.964;7.982;2023-03-01T10:21:25;6.68;;;3.08;;
47367;SDS011;34646;47.964;7.982;2023-03-01T10:33:46;5.13;;;3.28;;
47367;SDS011;34646;47.964;7.982;2023-03-01T10:40:02;4.22;;;3.10;;
47367;SDS011;34646;47.964;7.982;2023-03-01T10:46:24;5.28;;;3.38;;
47367;SDS011;34646;47.964;7.982;2023-03-01T10:52:35;5.93;;;3.40;;
47367;SDS011;34646;47.964;7.982;2023-03-01T10:58:37;4.55;;;3.10;;
47367;SDS011;34646;47.964;7.982;2023-03-01T11:04:39;4.32;;;3.25;;
47367;SDS011;34646;47.964;7.982;2023-03-01T11:10:42;6.72;;;3.83;;
47367;SDS011;34646;47.964;7.982;2023-03-01T11:16:44;6.10;;;3.40;;
47367;SDS011;34646;47.964;7.982;2023-03-01T11:23:04;5.00;;;3.47;;
47367;SDS011;34646;47.964;7.982;2023-03-01T11:29:16;4.30;;;2.97;;
47367;SDS011;34646;47.964;7.982;2023-03-01T11:35:27;5.25;;;3.08;;
47367;SDS011;34646;47.964;7.982;2023-03-01T11:41:30;5.88;;;3.63;;
47367;SDS011;34646;47.964;7.982;2023-03-01T11:54:33;3.88;;;2.78;;
47367;SDS011;34646;47.964;7.982;2023-03-01T12:00:36;4.82;;;2.92;;
47367;SDS011;34646;47.964;7.982;2023-03-01T12:12:46;4.10;;;2.53;;
47367;SDS011;34646;47.964;7.982;2023-03-01T12:37:47;11.60;;;6.65;;
47367;SDS011;34646;47.964;7.982;2023-03-01T12:50:21;32.97;;;15.48;;
47367;SDS011;34646;47.964;7.982;2023-03-01T12:56:27;45.63;;;21.80;;
47367;SDS011;34646;47.964;7.982;2023-03-01T13:02:32;55.42;;;25.17;;
47367;SDS011;34646;47.964;7.982;2023-03-01T13:21:30;73.53;;;33.97;;
47367;SDS011;34646;47.964;7.982;2023-03-01T13:27:31;72.65;;;32.47;;
47367;SDS011;34646;47.964;7.982;2023-03-01T13:33:37;76.57;;;32.87;;
47367;SDS011;34646;47.964;7.982;2023-03-01T13:39:43;69.28;;;32.15;;
47367;SDS011;34646;47.964;7.982;2023-03-01T13:45:44;68.33;;;32.27;;
47367;SDS011;34646;47.964;7.982;2023-03-01T13:51:46;71.13;;;31.67;;
47367;SDS011;34646;47.964;7.982;2023-03-01T13:57:50;67.07;;;31.08;;
47367;SDS011;34646;47.964;7.982;2023-03-01T14:03:55;73.22;;;32.35;;
47367;SDS011;34646;47.964;7.982;2023-03-01T14:09:58;67.43;;;30.80;;
47367;SDS011;34646;47.964;7.982;2023-03-01T14:16:08;69.78;;;31.02;;
47367;SDS011;34646;47.964;7.982;2023-03-01T14:22:20;62.92;;;29.08;;
47367;SDS011;34646;47.964;7.982;2023-03-01T14:28:30;62.88;;;28.20;;
47367;SDS011;34646;47.964;7.982;2023-03-01T14:34:38;61.78;;;28.45;;
47367;SDS011;34646;47.964;7.982;2023-03-01T14:40:44;61.63;;;28.33;;
47367;SDS011;34646;47.964;7.982;2023-03-01T14:46:45;54.90;;;26.27;;
47367;SDS011;34646;47.964;7.982;2023-03-01T14:52:47;51.13;;;25.33;;
47367;SDS011;34646;47.964;7.982;2023-03-01T14:58:58;58.97;;;25.63;;
47367;SDS011;34646;47.964;7.982;2023-03-01T15:05:00;55.25;;;23.63;;
47367;SDS011;34646;47.964;7.982;2023-03-01T15:17:13;46.33;;;22.67;;
47367;SDS011;34646;47.964;7.982;2023-03-01T15:23:36;45.83;;;22.23;;
47367;SDS011;34646;47.964;7.982;2023-03-01T15:29:38;49.53;;;22.48;;
47367;SDS011;34646;47.964;7.982;2023-03-01T15:35:43;43.17;;;20.23;;
47367;SDS011;34646;47.964;7.982;2023-03-01T15:41:48;44.85;;;20.98;;
47367;SDS011;34646;47.964;7.982;2023-03-01T15:47:53;48.17;;;20.67;;
47367;SDS011;34646;47.964;7.982;2023-03-01T15:53:58;38.80;;;18.30;;
47367;SDS011;34646;47.964;7.982;2023-03-01T16:00:01;35.75;;;17.35;;
47367;SDS011;34646;47.964;7.982;2023-03-01T16:06:11;34.97;;;15.40;;
47367;SDS011;34646;47.964;7.982;2023-03-01T16:12:13;32.95;;;14.55;;
47367;SDS011;34646;47.964;7.982;2023-03-01T16:18:15;28.42;;;14.20;;
47367;SDS011;34646;47.964;7.982;2023-03-01T16:24:16;26.03;;;13.57;;
47367;SDS011;34646;47.964;7.982;2023-03-01T16:30:19;25.20;;;12.30;;
47367;SDS011;34646;47.964;7.982;2023-03-01T16:36:21;29.40;;;13.10;;
47367;SDS011;34646;47.964;7.982;2023-03-01T16:42:25;27.58;;;13.05;;
47367;SDS011;34646;47.964;7.982;2023-03-01T16:48:27;27.25;;;11.88;;
47367;SDS011;34646;47.964;7.982;2023-03-01T16:54:28;23.33;;;11.87;;
47367;SDS011;34646;47.964;7.982;2023-03-01T17:00:29;24.33;;;11.77;;
47367;SDS011;34646;47.964;7.982;2023-03-01T17:06:30;21.40;;;12.27;;
47367;SDS011;34646;47.964;7.982;2023-03-01T17:12:32;24.50;;;12.27;;
47367;SDS011;34646;47.964;7.982;2023-03-01T17:18:34;21.85;;;11.35;;
47367;SDS011;34646;47.964;7.982;2023-03-01T17:24:35;31.05;;;11.55;;
47367;SDS011;34646;47.964;7.982;2023-03-01T17:30:40;23.85;;;11.18;;
47367;SDS011;34646;47.964;7.982;2023-03-01T17:36:42;18.67;;;10.68;;
47367;SDS011;34646;47.964;7.982;2023-03-01T17:42:44;26.08;;;12.05;;
47367;SDS011;34646;47.964;7.982;2023-03-01T17:48:45;27.53;;;12.10;;
47367;SDS011;34646;47.964;7.982;2023-03-01T17:54:48;21.70;;;11.73;;
47367;SDS011;34646;47.964;7.982;2023-03-01T18:00:49;24.53;;;12.10;;
47367;SDS011;34646;47.964;7.982;2023-03-01T18:06:50;18.87;;;11.07;;
47367;SDS011;34646;47.964;7.982;2023-03-01T18:12:52;20.50;;;11.03;;
47367;SDS011;34646;47.964;7.982;2023-03-01T18:18:53;22.80;;;11.00;;
47367;SDS011;34646;47.964;7.982;2023-03-01T18:24:55;22.02;;;11.20;;
47367;SDS011;34646;47.964;7.982;2023-03-01T18:30:57;21.07;;;10.27;;
47367;SDS011;34646;47.964;7.982;2023-03-01T18:36:59;21.60;;;10.80;;
47367;SDS011;34646;47.964;7.982;2023-03-01T18:43:00;21.47;;;10.17;;
47367;SDS011;34646;47.964;7.982;2023-03-01T18:49:01;21.77;;;10.87;;
47367;SDS011;34646;47.964;7.982;2023-03-01T18:55:02;22.50;;;10.00;;
47367;SDS011;34646;47.964;7.982;2023-03-01T19:01:03;17.33;;;9.57;;
47367;SDS011;34646;47.964;7.982;2023-03-01T19:07:07;17.92;;;8.93;;
47367;SDS011;34646;47.964;7.982;2023-03-01T19:13:08;18.43;;;9.03;;
47367;SDS011;34646;47.964;7.982;2023-03-01T19:19:10;17.92;;;8.82;;
47367;SDS011;34646;47.964;7.982;2023-03-01T19:25:11;18.47;;;9.20;;
47367;SDS011;34646;47.964;7.982;2023-03-01T19:31:14;18.93;;;8.80;;
47367;SDS011;34646;47.964;7.982;2023-03-01T19:37:16;17.20;;;8.95;;
47367;SDS011;34646;47.964;7.982;2023-03-01T19:43:17;18.47;;;8.90;;
47367;SDS011;34646;47.964;7.982;2023-03-01T19:49:18;17.80;;;8.80;;
47367;SDS011;34646;47.964;7.982;2023-03-01T19:55:19;16.90;;;8.73;;
47367;SDS011;34646;47.964;7.982;2023-03-01T20:01:20;20.53;;;9.40;;
47367;SDS011;34646;47.964;7.982;2023-03-01T20:07:21;16.77;;;7.93;;
47367;SDS011;34646;47.964;7.982;2023-03-01T20:13:22;16.17;;;8.70;;
47367;SDS011;34646;47.964;7.982;2023-03-01T20:19:23;13.37;;;8.17;;
47367;SDS011;34646;47.964;7.982;2023-03-01T20:25:24;16.10;;;8.43;;
47367;SDS011;34646;47.964;7.982;2023-03-01T20:31:25;18.23;;;8.60;;
47367;SDS011;34646;47.964;7.982;2023-03-01T20:37:28;15.10;;;8.13;;
47367;SDS011;34646;47.964;7.982;2023-03-01T20:43:29;17.50;;;8.90;;
47367;SDS011;34646;47.964;7.982;2023-03-01T20:49:30;13.23;;;7.93;;
47367;SDS011;34646;47.964;7.982;2023-03-01T20:55:32;14.53;;;7.13;;
47367;SDS011;34646;47.964;7.982;2023-03-01T21:01:33;13.70;;;7.72;;
47367;SDS011;34646;47.964;7.982;2023-03-01T21:07:34;13.60;;;7.45;;
47367;SDS011;34646;47.964;7.982;2023-03-01T21:13:35;17.27;;;8.10;;
47367;SDS011;34646;47.964;7.982;2023-03-01T21:19:37;13.63;;;6.97;;
47367;SDS011;34646;47.964;7.982;2023-03-01T21:25:38;15.45;;;7.60;;
47367;SDS011;34646;47.964;7.982;2023-03-01T21:31:40;16.53;;;7.60;;
47367;SDS011;34646;47.964;7.982;2023-03-01T21:37:41;11.97;;;6.53;;
47367;SDS011;34646;47.964;7.982;2023-03-01T21:43:42;14.90;;;6.73;;
47367;SDS011;34646;47.964;7.982;2023-03-01T21:49:44;12.52;;;6.72;;
47367;SDS011;34646;47.964;7.982;2023-03-01T21:55:46;15.13;;;7.07;;
47367;SDS011;34646;47.964;7.982;2023-03-01T22:01:48;13.07;;;6.45;;
47367;SDS011;34646;47.964;7.982;2023-03-01T22:07:50;13.02;;;6.53;;
47367;SDS011;34646;47.964;7.982;2023-03-01T22:13:51;14.40;;;7.00;;
47367;SDS011;34646;47.964;7.982;2023-03-01T22:19:54;11.80;;;6.60;;
47367;SDS011;34646;47.964;7.982;2023-03-01T22:25:55;14.20;;;6.37;;
47367;SDS011;34646;47.964;7.982;2023-03-01T22:31:56;10.57;;;6.47;;
47367;SDS011;34646;47.964;7.982;2023-03-01T22:37:57;12.77;;;6.97;;
47367;SDS011;34646;47.964;7.982;2023-03-01T22:43:58;11.40;;;6.80;;
47367;SDS011;34646;47.964;7.982;2023-03-01T22:49:59;11.80;;;6.57;;
47367;SDS011;34646;47.964;7.982;2023-03-01T22:56:10;10.13;;;5.83;;
47367;SDS011;34646;47.964;7.982;2023-03-01T23:02:19;12.18;;;6.60;;
47367;SDS011;34646;47.964;7.982;2023-03-01T23:08:21;11.63;;;6.65;;
47367;SDS011;34646;47.964;7.982;2023-03-01T23:14:23;11.03;;;6.23;;
47367;SDS011;34646;47.964;7.982;2023-03-01T23:20:25;11.93;;;6.40;;
47367;SDS011;34646;47.964;7.982;2023-03-01T23:26:26;9.30;;;5.87;;
47367;SDS011;34646;47.964;7.982;2023-03-01T23:32:28;10.65;;;6.13;;
47367;SDS011;34646;47.964;7.982;2023-03-01T23:38:29;11.80;;;6.50;;
47367;SDS011;34646;47.964;7.982;2023-03-01T23:44:30;11.77;;;6.77;;
47367;SDS011;34646;47.964;7.982;2023-03-01T23:50:33;12.50;;;6.13;;
47367;SDS011;34646;47.964;7.982;2023-03-01T23:56:38;10.60;;;6.25;;
